createdAt,value
2023-01-18T00:01:12.368Z,3.14
2023-01-18T00:03:43.061Z,3.12
2023-01-18T00:06:12.253Z,3.10
2023-01-18T00:08:43.094Z,3.13
2023-01-18T00:11:14.658Z,3.15
2023-01-18T00:13:43.768Z,3.08
2023-01-18T00:16:15.394Z,3.03
2023-01-18T00:18:45.029Z,3.06
2023-01-18T00:21:13.312Z,3.10
2023-01-18T00:23:41.743Z,3.07
2023-01-18T00:26:12.947Z,3.10
2023-01-18T00:28:41.671Z,3.06
2023-01-18T00:31:21.643Z,3.11
2023-01-18T00:33:50.837Z,3.09
2023-01-18T00:36:19.511Z,3.12
2023-01-18T00:38:54.698Z,3.09
2023-01-18T00:41:23.666Z,3.09
2023-01-18T00:43:53.693Z,3.15
2023-01-18T00:46:25.207Z,3.08
2023-01-18T00:48:55.821Z,3.11
2023-01-18T00:51:25.929Z,3.15
2023-01-18T00:53:54.091Z,3.17
2023-01-18T00:56:23.653Z,3.20
2023-01-18T00:58:51.967Z,3.22
2023-01-18T01:01:20.688Z,3.21
2023-01-18T01:04:07.394Z,3.21
2023-01-18T01:06:45.774Z,3.20
2023-01-18T01:09:29.767Z,3.19
2023-01-18T01:12:17.880Z,3.20
2023-01-18T01:15:06.558Z,3.15
2023-01-18T01:17:56.522Z,3.15
2023-01-18T01:20:44.954Z,3.07
2023-01-18T01:23:39.523Z,2.84
2023-01-18T01:26:11.131Z,2.68
2023-01-18T01:28:43.105Z,2.90
2023-01-18T01:31:14.267Z,2.91
2023-01-18T01:33:42.615Z,2.83
2023-01-18T01:36:13.078Z,2.69
2023-01-18T01:38:44.677Z,2.68
2023-01-18T01:41:20.360Z,2.63
2023-01-18T01:43:51.131Z,2.51
2023-01-18T01:46:44.337Z,2.58
2023-01-18T01:49:15.537Z,2.53
2023-01-18T01:51:47.483Z,2.49
2023-01-18T01:54:23.084Z,2.56
2023-01-18T01:56:56.365Z,2.59
2023-01-18T01:59:25.003Z,2.64
2023-01-18T02:01:53.387Z,2.69
2023-01-18T02:04:21.598Z,2.72
2023-01-18T02:06:49.924Z,2.72
2023-01-18T02:09:23.883Z,2.75
2023-01-18T02:11:56.496Z,2.80
2023-01-18T02:14:27.925Z,2.85
2023-01-18T02:17:45.533Z,2.83
2023-01-18T02:20:50.293Z,2.88
2023-01-18T02:23:46.005Z,2.93
2023-01-18T02:26:34.735Z,2.98
2023-01-18T02:29:46.618Z,2.93
2023-01-18T02:32:29.723Z,2.90
2023-01-18T02:35:18.767Z,2.78
2023-01-18T02:38:20.084Z,2.88
2023-01-18T02:41:20.215Z,2.83
2023-01-18T02:44:10.620Z,2.81
2023-01-18T02:46:41.242Z,2.82
2023-01-18T02:49:36.283Z,2.88
2023-01-18T02:52:09.325Z,2.82
2023-01-18T02:54:40.520Z,2.76
2023-01-18T02:57:16.291Z,2.69
2023-01-18T02:59:55.288Z,2.69
2023-01-18T03:02:26.759Z,2.76
2023-01-18T03:04:56.408Z,2.74
2023-01-18T03:07:33.530Z,2.72
2023-01-18T03:10:03.763Z,2.66
2023-01-18T03:12:47.375Z,2.45
2023-01-18T03:15:59.056Z,2.48
2023-01-18T03:18:35.642Z,2.44
2023-01-18T03:21:06.215Z,2.42
2023-01-18T03:23:40.715Z,2.41
2023-01-18T03:26:20.914Z,2.44
2023-01-18T03:29:16.556Z,2.41
2023-01-18T03:32:10.557Z,2.37
2023-01-18T03:34:50.393Z,2.27
2023-01-18T03:37:28.998Z,2.25
2023-01-18T03:40:11.450Z,2.24
2023-01-18T03:42:59.044Z,2.21
2023-01-18T03:45:30.804Z,2.24
2023-01-18T03:48:00.197Z,2.22
2023-01-18T03:50:43.571Z,2.26
2023-01-18T03:53:17.487Z,2.27
2023-01-18T03:55:52.397Z,2.26
2023-01-18T03:58:25.516Z,2.26
2023-01-18T04:00:54.615Z,2.25
2023-01-18T04:03:23.451Z,2.25
2023-01-18T04:05:51.807Z,2.26
2023-01-18T04:08:22.250Z,2.28
2023-01-18T04:10:50.888Z,2.29
2023-01-18T04:13:19.177Z,2.28
2023-01-18T04:15:47.382Z,2.30
2023-01-18T04:18:16.127Z,2.30
2023-01-18T04:20:44.808Z,2.15
2023-01-18T04:23:13.448Z,2.07
2023-01-18T04:25:46.084Z,2.12
2023-01-18T04:28:14.927Z,2.15
2023-01-18T04:30:43.087Z,2.18
2023-01-18T04:33:11.813Z,2.18
2023-01-18T04:35:40.329Z,2.17
2023-01-18T04:38:08.985Z,2.15
2023-01-18T04:40:37.616Z,2.14
2023-01-18T04:43:06.217Z,2.12
2023-01-18T04:45:34.406Z,2.07
2023-01-18T04:48:02.981Z,1.89
2023-01-18T04:50:31.893Z,1.87
2023-01-18T04:53:00.778Z,1.81
2023-01-18T04:55:29.219Z,1.81
2023-01-18T04:57:57.889Z,1.78
2023-01-18T05:00:26.321Z,1.81
2023-01-18T05:02:54.668Z,1.84
2023-01-18T05:05:24.034Z,1.85
2023-01-18T05:07:52.706Z,1.87
2023-01-18T05:10:20.860Z,1.86
2023-01-18T05:12:49.177Z,1.85
2023-01-18T05:15:19.053Z,1.87
2023-01-18T05:17:47.533Z,1.89
2023-01-18T05:20:16.186Z,1.91
2023-01-18T05:22:44.352Z,1.95
2023-01-18T05:25:12.503Z,1.97
2023-01-18T05:27:41.592Z,1.97
2023-01-18T05:30:11.394Z,1.99
2023-01-18T05:32:40.038Z,1.99
2023-01-18T16:40:43.980Z,2.59
2023-01-18T16:43:18.460Z,2.70
2023-01-18T16:45:48.992Z,2.86
2023-01-18T16:48:23.188Z,3.00
2023-01-18T16:50:52.263Z,3.10
2023-01-18T16:53:20.625Z,3.22
2023-01-18T16:55:51.189Z,3.33
2023-01-18T16:58:21.208Z,3.42
2023-01-18T17:01:02.074Z,3.46
2023-01-18T17:03:30.800Z,3.48
2023-01-18T17:05:59.308Z,3.53
2023-01-18T17:08:27.534Z,3.45
2023-01-18T17:10:56.387Z,3.40
2023-01-18T17:13:24.793Z,3.35
2023-01-18T17:15:54.116Z,3.39
2023-01-18T17:18:26.559Z,3.34
2023-01-18T17:20:56.101Z,3.23
2023-01-18T17:23:26.448Z,3.18
2023-01-18T17:25:55.139Z,3.12
2023-01-18T17:28:23.857Z,3.13
2023-01-18T17:30:52.210Z,3.08
2023-01-18T17:33:26.134Z,3.08
2023-01-18T17:35:55.651Z,2.99
2023-01-18T17:38:27.112Z,3.00
2023-01-18T17:40:57.796Z,2.92
2023-01-18T17:43:33.804Z,2.66
2023-01-18T17:46:04.515Z,2.85
2023-01-18T17:48:33.448Z,2.96
2023-01-18T17:51:02.065Z,2.97
2023-01-18T17:53:30.768Z,3.03
2023-01-18T17:55:59.134Z,3.06
2023-01-18T17:58:27.839Z,3.08
2023-01-18T18:00:56.594Z,3.12
2023-01-18T18:03:25.162Z,3.17
2023-01-18T18:05:59.083Z,3.18
2023-01-18T18:08:27.573Z,3.17
2023-01-18T18:10:56.289Z,3.13
2023-01-18T18:13:25.282Z,3.12
2023-01-18T18:15:54.504Z,3.12
2023-01-18T18:18:24.251Z,3.14
2023-01-18T18:21:04.764Z,3.17
2023-01-18T18:23:33.844Z,3.19
2023-01-18T18:26:03.620Z,3.23
2023-01-18T18:28:34.029Z,3.26
2023-01-18T18:31:02.567Z,3.30
2023-01-18T18:33:33.792Z,3.33
2023-01-18T18:36:02.618Z,3.34
2023-01-18T18:38:31.364Z,3.32
2023-01-18T18:41:05.098Z,3.28
2023-01-18T18:43:33.415Z,3.27
2023-01-18T18:46:01.605Z,3.23
2023-01-18T18:48:29.774Z,3.21
2023-01-18T18:50:58.809Z,3.13
2023-01-18T18:53:37.538Z,3.12
2023-01-18T18:56:10.571Z,3.03
2023-01-18T18:58:39.960Z,3.03
2023-01-18T19:01:19.547Z,3.03
2023-01-18T19:03:48.763Z,2.96
2023-01-18T19:06:18.077Z,2.97
2023-01-18T19:08:46.873Z,2.93
2023-01-18T19:11:16.435Z,2.89
2023-01-18T19:13:45.323Z,2.89
2023-01-18T19:16:13.826Z,2.92
2023-01-18T19:18:42.615Z,2.92
2023-01-18T19:21:11.366Z,2.95
2023-01-18T19:23:40.116Z,3.00
2023-01-18T19:26:08.815Z,3.00
2023-01-18T19:28:37.460Z,3.03
2023-01-18T19:31:08.601Z,3.04
2023-01-18T19:33:37.535Z,3.08
2023-01-18T19:36:15.410Z,3.08
2023-01-18T19:38:48.026Z,3.10
2023-01-18T19:41:18.609Z,2.99
2023-01-18T19:43:50.651Z,3.04
2023-01-18T19:46:20.785Z,3.06
2023-01-18T19:48:49.500Z,3.07
2023-01-18T19:51:22.290Z,3.12
2023-01-18T19:53:55.806Z,3.08
2023-01-18T19:56:26.247Z,3.11
2023-01-18T19:58:54.507Z,3.16
2023-01-18T20:01:35.144Z,3.21
2023-01-18T20:04:07.064Z,3.25
2023-01-18T20:06:38.035Z,3.28
2023-01-18T20:09:18.134Z,3.31
2023-01-18T20:11:48.859Z,3.33
2023-01-18T20:14:18.603Z,3.34
2023-01-18T20:16:47.471Z,3.29
2023-01-18T20:19:18.089Z,3.21
2023-01-18T20:21:46.808Z,3.11
2023-01-18T20:24:15.234Z,3.08
2023-01-18T20:26:44.014Z,3.08
2023-01-18T20:29:12.888Z,3.11
2023-01-18T20:31:44.626Z,3.16
2023-01-18T20:34:17.246Z,3.21
2023-01-18T20:36:46.819Z,3.19
2023-01-18T20:39:15.504Z,3.20
2023-01-18T20:41:44.423Z,3.18
2023-01-18T20:44:13.053Z,3.16
2023-01-18T20:46:41.719Z,3.13
2023-01-18T20:49:10.114Z,3.12
2023-01-18T20:51:40.953Z,3.11
2023-01-18T20:54:09.699Z,3.13
2023-01-18T20:56:38.053Z,3.15
2023-01-18T20:59:06.765Z,3.14
2023-01-18T21:01:35.523Z,3.14
2023-01-18T21:04:05.419Z,3.15
2023-01-18T21:06:34.732Z,3.15
2023-01-18T21:09:03.467Z,3.17
2023-01-18T21:11:32.483Z,3.18
2023-01-18T21:14:01.355Z,3.19
2023-01-18T21:16:30.247Z,3.22
2023-01-18T21:18:59.744Z,3.24
2023-01-18T21:21:30.583Z,3.25
2023-01-18T21:23:59.422Z,3.27
2023-01-18T21:26:28.230Z,3.24
2023-01-18T21:28:57.228Z,3.25
2023-01-18T21:31:25.576Z,3.27
2023-01-18T21:33:54.962Z,3.28
2023-01-18T21:36:23.861Z,3.29
2023-01-18T21:38:52.517Z,3.31
2023-01-18T21:41:39.446Z,3.31
2023-01-18T21:44:26.451Z,3.33
2023-01-18T21:46:55.780Z,3.34
2023-01-18T21:50:11.443Z,3.32
2023-01-18T21:52:49.616Z,3.31
2023-01-18T21:55:18.167Z,3.30
2023-01-18T21:58:06.870Z,3.31
2023-01-18T22:00:40.116Z,3.31
2023-01-18T22:03:10.261Z,3.33
2023-01-18T22:05:41.173Z,3.33
2023-01-18T22:08:10.560Z,3.33
2023-01-18T22:10:39.334Z,3.32
2023-01-18T22:13:07.923Z,3.31
2023-01-18T22:15:36.770Z,3.29
2023-01-18T22:18:06.652Z,3.28
2023-01-18T22:20:35.881Z,3.29
2023-01-18T22:23:04.748Z,3.30
2023-01-18T22:25:33.689Z,3.31
2023-01-18T22:28:02.546Z,3.33
2023-01-18T22:30:31.472Z,3.30
2023-01-18T22:33:00.407Z,3.21
2023-01-18T22:35:32.126Z,3.15
2023-01-18T22:38:00.776Z,3.10
2023-01-18T22:40:29.658Z,3.09
2023-01-18T22:42:58.465Z,3.12
2023-01-18T22:45:27.965Z,3.13
2023-01-18T22:47:56.450Z,3.16
2023-01-18T22:50:24.682Z,3.17
2023-01-18T22:52:53.215Z,3.21
2023-01-18T22:55:21.654Z,3.20
2023-01-18T22:57:50.298Z,3.21
2023-01-18T23:00:19.459Z,3.25
2023-01-18T23:02:48.048Z,3.28
2023-01-18T23:05:16.689Z,3.32
2023-01-18T23:07:45.334Z,3.35
2023-01-18T23:10:13.716Z,3.37
2023-01-18T23:12:42.635Z,3.40
2023-01-18T23:15:32.128Z,3.41
2023-01-18T23:18:00.855Z,3.44
2023-01-18T23:20:29.372Z,3.48
2023-01-18T23:22:57.637Z,3.49
2023-01-18T23:25:26.263Z,3.51
2023-01-18T23:27:54.462Z,3.52
2023-01-18T23:30:23.213Z,3.51
2023-01-18T23:32:51.972Z,3.51
2023-01-18T23:35:20.546Z,3.47
2023-01-18T23:37:49.097Z,3.43
2023-01-18T23:40:36.532Z,3.41
2023-01-18T23:43:23.533Z,3.36
2023-01-18T23:46:10.346Z,3.31
2023-01-18T23:48:57.413Z,3.21
2023-01-18T23:51:44.014Z,2.99
2023-01-18T23:54:18.684Z,3.09
2023-01-18T23:56:48.459Z,3.08
2023-01-18T23:59:17.493Z,3.02
